createdAt,value
2019-04-21T00:02:03.504Z,9.48
2019-04-21T00:04:43.390Z,8.15
2019-04-21T00:07:19.331Z,9.68
2019-04-21T00:09:52.361Z,7.15
2019-04-21T00:12:18.255Z,8.15
2019-04-21T00:14:43.356Z,9.38
2019-04-21T00:17:06.145Z,7.03
2019-04-21T00:19:42.559Z,7.42
2019-04-21T00:22:26.102Z,6.72
2019-04-21T00:24:54.366Z,7.17
2019-04-21T00:27:25.610Z,8.68
2019-04-21T00:29:58.040Z,9.28
2019-04-21T00:32:25.385Z,7.62
2019-04-21T00:34:50.310Z,5.97
2019-04-21T00:37:22.476Z,6.33
2019-04-21T00:42:30.317Z,6.85
2019-04-21T00:44:55.652Z,8.33
2019-04-21T00:47:31.754Z,8.20
2019-04-21T00:50:01.999Z,8.75
2019-04-21T00:55:31.250Z,8.60
2019-04-21T00:57:51.947Z,6.60
2019-04-21T01:00:18.644Z,7.10
2019-04-21T01:05:18.255Z,9.28
2019-04-21T01:07:42.397Z,10.70
2019-04-21T01:10:05.233Z,8.18
2019-04-21T01:12:43.044Z,6.22
2019-04-21T01:15:18.587Z,6.65
2019-04-21T01:17:41.819Z,7.45
2019-04-21T01:20:02.836Z,7.08
2019-04-21T01:22:18.275Z,9.18
2019-04-21T01:24:48.734Z,9.68
2019-04-21T01:27:25.194Z,6.83
2019-04-21T01:30:07.229Z,5.83
2019-04-21T01:32:37.479Z,7.90
2019-04-21T01:35:09.880Z,8.55
2019-04-21T01:37:44.033Z,6.40
2019-04-21T01:40:10.495Z,7.42
2019-04-21T01:42:33.400Z,7.58
2019-04-21T01:45:05.454Z,7.55
2019-04-21T01:47:31.430Z,6.97
2019-04-21T01:49:58.030Z,7.15
2019-04-21T01:52:43.944Z,6.62
2019-04-21T01:55:18.365Z,9.50
2019-04-21T01:58:11.364Z,7.75
2019-04-21T02:00:54.359Z,7.33
2019-04-21T02:03:41.725Z,11.03
2019-04-21T02:06:02.295Z,10.00
2019-04-21T02:08:21.555Z,7.85
2019-04-21T02:10:57.154Z,10.13
2019-04-21T02:13:16.873Z,7.78
2019-04-21T02:15:56.376Z,8.43
2019-04-21T02:18:16.995Z,9.48
2019-04-21T02:20:39.872Z,9.00
2019-04-21T02:23:26.437Z,9.05
2019-04-21T02:25:50.644Z,8.80
2019-04-21T02:28:29.769Z,8.63
2019-04-21T02:31:09.622Z,7.55
2019-04-21T02:33:43.062Z,7.12
2019-04-21T02:36:00.590Z,7.20
2019-04-21T02:38:30.711Z,6.78
2019-04-21T02:40:49.473Z,9.90
2019-04-21T02:43:25.115Z,7.60
2019-04-21T02:45:58.569Z,8.20
2019-04-21T02:53:30.532Z,8.15
2019-04-21T02:55:58.735Z,9.13
2019-04-21T02:58:34.430Z,7.17
2019-04-21T03:01:31.272Z,8.23
2019-04-21T03:04:15.861Z,6.83
2019-04-21T03:07:09.679Z,10.95
2019-04-21T03:09:32.088Z,8.50
2019-04-21T03:14:46.466Z,8.35
2019-04-21T03:17:05.591Z,5.80
2019-04-21T03:19:48.153Z,10.28
2019-04-21T03:22:09.730Z,7.53
2019-04-21T03:24:40.305Z,5.95
2019-04-21T03:27:12.174Z,8.30
2019-04-21T03:32:36.703Z,6.15
2019-04-21T03:35:00.430Z,17.00
2019-04-21T03:37:14.019Z,5.95
2019-04-21T03:39:31.261Z,6.50
2019-04-21T03:42:12.426Z,5.65
2019-04-21T03:44:32.459Z,6.37
2019-04-21T03:52:03.543Z,6.70
2019-04-21T03:54:37.335Z,8.75
2019-04-21T03:57:24.047Z,7.60
2019-04-21T03:59:31.677Z,8.55
2019-04-21T04:02:28.056Z,5.97
2019-04-21T04:05:01.061Z,9.15
2019-04-21T04:10:11.815Z,6.97
2019-04-21T04:12:44.332Z,5.85
2019-04-21T04:15:23.764Z,6.55
2019-04-21T04:17:40.803Z,5.80
2019-04-21T04:20:19.189Z,7.87
2019-04-21T04:25:11.520Z,7.12
2019-04-21T04:30:14.743Z,7.80
2019-04-21T04:37:44.671Z,5.47
2019-04-21T04:40:46.912Z,8.85
2019-04-21T04:43:13.207Z,7.05
2019-04-21T04:48:05.835Z,8.18
2019-04-21T04:50:43.338Z,6.08
2019-04-21T04:53:01.590Z,6.80
2019-04-21T04:55:33.748Z,6.55
2019-04-21T04:58:16.093Z,6.33
2019-04-21T05:01:00.019Z,6.22
2019-04-21T05:03:01.004Z,6.45
2019-04-21T05:05:38.457Z,7.97
2019-04-21T05:10:50.938Z,7.33
2019-04-21T05:13:14.335Z,6.03
2019-04-21T05:15:28.582Z,5.62
2019-04-21T05:18:25.175Z,10.10
2019-04-21T05:20:23.677Z,6.42
2019-04-21T05:22:58.153Z,6.92
2019-04-21T05:25:19.475Z,6.28
2019-04-21T05:27:47.280Z,6.08
2019-04-21T05:30:41.932Z,7.62
2019-04-21T05:33:25.718Z,7.03
2019-04-21T05:36:11.036Z,6.42
2019-04-21T05:38:53.062Z,5.78
2019-04-21T05:41:23.197Z,8.03
2019-04-21T05:43:56.407Z,7.95
2019-04-21T05:46:31.871Z,6.28
2019-04-21T05:49:05.622Z,6.30
2019-04-21T05:51:30.347Z,6.17
2019-04-21T05:54:09.296Z,6.83
2019-04-21T05:56:32.087Z,7.67
2019-04-21T05:58:55.427Z,7.50
2019-04-21T06:01:33.413Z,7.35
2019-04-21T06:04:07.185Z,5.78
2019-04-21T06:06:41.029Z,8.15
2019-04-21T06:08:58.388Z,7.83
2019-04-21T06:11:32.036Z,9.75
2019-04-21T06:14:03.786Z,9.35
2019-04-21T06:16:36.448Z,8.03
2019-04-21T06:19:01.041Z,8.95
2019-04-21T06:21:27.508Z,8.43
2019-04-21T06:23:57.371Z,8.75
2019-04-21T06:26:53.826Z,8.55
2019-04-21T06:31:47.359Z,9.35
2019-04-21T06:33:58.861Z,7.83
2019-04-21T06:39:11.623Z,9.00
2019-04-21T06:41:34.009Z,7.33
2019-04-21T06:46:35.474Z,9.08
2019-04-21T06:51:33.747Z,10.13
2019-04-21T06:56:38.122Z,9.10
2019-04-21T06:59:01.311Z,10.10
2019-04-21T07:01:36.027Z,11.68
2019-04-21T07:06:40.395Z,12.35
2019-04-21T07:09:10.415Z,10.80
2019-04-21T07:11:25.287Z,13.95
2019-04-21T07:14:20.865Z,9.48
2019-04-21T07:16:34.704Z,8.45
2019-04-21T07:19:09.805Z,12.30
2019-04-21T07:21:32.468Z,12.45
2019-04-21T07:24:05.829Z,12.25
2019-04-21T07:26:29.694Z,12.25
2019-04-21T07:29:01.780Z,10.00
2019-04-21T07:31:31.709Z,9.68
2019-04-21T07:34:10.186Z,14.47
2019-04-21T07:36:43.975Z,12.93
2019-04-21T07:38:55.604Z,10.20
2019-04-21T07:41:18.522Z,9.70
2019-04-21T07:43:55.944Z,13.20
2019-04-21T07:46:23.681Z,13.62
2019-04-21T07:49:19.146Z,12.95
2019-04-21T07:52:26.476Z,10.30
2019-04-21T07:54:57.422Z,9.63
2019-04-21T07:57:15.555Z,10.80
2019-04-21T07:59:57.855Z,12.07
2019-04-21T08:02:17.062Z,9.05
2019-04-21T08:07:24.515Z,11.25
2019-04-21T08:09:46.729Z,12.00
2019-04-21T08:12:15.767Z,10.43
2019-04-21T08:14:53.538Z,11.20
2019-04-21T08:17:16.172Z,10.53
2019-04-21T08:19:46.168Z,10.88
2019-04-21T08:22:20.245Z,10.88
2019-04-21T08:24:50.123Z,10.72
2019-04-21T08:27:17.741Z,9.68
2019-04-21T08:29:46.256Z,10.43
2019-04-21T08:32:15.809Z,8.10
2019-04-21T08:34:55.831Z,10.88
2019-04-21T08:37:13.885Z,11.35
2019-04-21T08:42:10.429Z,11.93
2019-04-21T08:44:46.656Z,8.60
2019-04-21T08:47:12.841Z,8.70
2019-04-21T08:49:41.526Z,9.88
2019-04-21T08:52:21.241Z,12.65
2019-04-21T08:54:43.104Z,9.80
2019-04-21T08:57:24.560Z,10.48
2019-04-21T09:00:08.433Z,9.88
2019-04-21T09:02:47.151Z,13.00
2019-04-21T09:05:17.736Z,8.28
2019-04-21T09:07:51.023Z,10.75
2019-04-21T09:10:17.652Z,11.30
2019-04-21T09:12:46.607Z,8.30
2019-04-21T09:15:17.358Z,8.63
2019-04-21T09:17:36.760Z,9.00
2019-04-21T09:20:20.960Z,8.05
2019-04-21T09:22:45.769Z,7.53
2019-04-21T09:25:19.365Z,10.80
2019-04-21T09:27:44.071Z,6.20
2019-04-21T09:30:00.325Z,10.08
2019-04-21T09:32:27.563Z,6.17
2019-04-21T09:34:54.069Z,7.80
2019-04-21T09:37:35.326Z,10.80
2019-04-21T09:39:54.136Z,7.75
2019-04-21T09:42:21.920Z,8.68
2019-04-21T09:44:53.827Z,7.10
2019-04-21T09:47:24.560Z,7.08
2019-04-21T09:49:50.029Z,8.70
2019-04-21T09:52:20.914Z,6.87
2019-04-21T09:54:56.623Z,9.13
2019-04-21T09:57:29.959Z,8.28
2019-04-21T09:59:55.773Z,8.78
2019-04-21T10:02:25.237Z,7.90
2019-04-21T10:04:46.252Z,6.22
2019-04-21T10:07:24.349Z,5.85
2019-04-21T10:09:43.659Z,6.03
2019-04-21T10:12:11.894Z,8.38
2019-04-21T10:14:40.825Z,5.95
2019-04-21T10:17:24.263Z,7.37
2019-04-21T10:19:52.887Z,7.65
2019-04-21T10:22:21.158Z,5.87
2019-04-21T10:24:48.873Z,6.53
2019-04-21T10:27:17.122Z,6.05
2019-04-21T10:29:47.235Z,7.75
2019-04-21T10:32:15.570Z,4.65
2019-04-21T10:34:45.231Z,8.28
2019-04-21T10:37:13.377Z,6.22
2019-04-21T10:39:43.139Z,4.47
2019-04-21T10:42:11.289Z,4.53
2019-04-21T10:44:38.952Z,5.37
2019-04-21T10:47:06.911Z,5.08
2019-04-21T10:49:35.016Z,5.85
2019-04-21T10:52:06.700Z,4.30
2019-04-21T10:54:57.278Z,5.30
2019-04-21T10:57:08.361Z,4.58
2019-04-21T10:59:37.223Z,4.17
2019-04-21T11:02:08.791Z,3.62
2019-04-21T11:04:38.586Z,6.97
2019-04-21T11:07:31.388Z,4.55
2019-04-21T11:09:56.094Z,5.20
2019-04-21T11:12:24.185Z,3.67
2019-04-21T11:14:51.756Z,5.67
2019-04-21T11:17:19.863Z,4.05
2019-04-21T11:19:48.549Z,4.75
2019-04-21T11:22:16.769Z,4.95
2019-04-21T11:24:44.995Z,3.42
2019-04-21T11:27:12.788Z,5.20
2019-04-21T11:29:41.334Z,3.77
2019-04-21T11:32:09.342Z,3.25
2019-04-21T11:34:37.278Z,4.45
2019-04-21T11:37:06.555Z,3.12
2019-04-21T11:39:46.083Z,3.98
2019-04-21T11:42:13.556Z,2.65
2019-04-21T11:44:41.717Z,2.90
2019-04-21T11:47:16.601Z,2.22
2019-04-21T11:49:45.244Z,3.22
2019-04-21T11:52:13.356Z,3.00
2019-04-21T11:54:42.680Z,3.05
2019-04-21T11:57:16.063Z,2.98
2019-04-21T11:59:40.025Z,4.40
2019-04-21T12:02:07.865Z,2.58
2019-04-21T12:04:35.801Z,4.53
2019-04-21T12:07:04.990Z,3.92
2019-04-21T12:09:33.758Z,4.22
2019-04-21T12:12:01.315Z,3.52
2019-04-21T12:14:30.161Z,3.52
2019-04-21T12:16:59.210Z,2.80
2019-04-21T12:19:27.113Z,2.55
2019-04-21T12:22:05.022Z,3.92
2019-04-21T12:24:24.987Z,2.92
2019-04-21T12:26:53.799Z,2.92
2019-04-21T12:29:22.710Z,4.45
2019-04-21T12:32:22.215Z,2.92
2019-04-21T12:34:51.769Z,5.58
2019-04-21T12:37:19.294Z,3.08
2019-04-21T12:39:48.496Z,5.10
2019-04-21T12:42:16.645Z,2.20
2019-04-21T12:44:45.438Z,2.95
2019-04-21T12:47:14.167Z,2.42
2019-04-21T12:49:43.484Z,2.35
2019-04-21T12:52:11.498Z,2.60
2019-04-21T12:54:39.651Z,2.22
2019-04-21T12:57:07.689Z,1.80
2019-04-21T12:59:36.303Z,2.02
2019-04-21T13:02:05.772Z,2.58
2019-04-21T13:04:33.546Z,3.92
2019-04-21T13:07:01.540Z,2.95
2019-04-21T13:09:30.717Z,2.98
2019-04-21T13:11:59.451Z,2.17
2019-04-21T13:14:27.354Z,2.47
2019-04-21T13:16:55.120Z,2.05
2019-04-21T13:19:23.631Z,4.47
2019-04-21T13:21:52.063Z,3.25
2019-04-21T13:24:19.993Z,2.77
2019-04-21T13:26:53.637Z,1.80
2019-04-21T13:29:18.416Z,2.42
2019-04-21T13:31:45.933Z,3.30
2019-04-21T13:34:14.021Z,2.33
2019-04-21T13:36:41.515Z,5.08
2019-04-21T13:39:57.126Z,4.17
2019-04-21T13:42:14.509Z,3.62
2019-04-21T13:44:33.026Z,2.58
2019-04-21T13:47:00.813Z,1.98
2019-04-21T13:49:29.619Z,2.62
2019-04-21T13:51:57.504Z,4.12
2019-04-21T13:54:25.424Z,2.80
2019-04-21T13:56:54.393Z,2.42
2019-04-21T13:59:22.495Z,3.70
2019-04-21T14:01:50.122Z,3.15
2019-04-21T14:04:17.858Z,2.67
2019-04-21T14:06:45.487Z,3.92
2019-04-21T14:09:13.854Z,3.52
2019-04-21T14:11:41.491Z,2.83
2019-04-21T14:14:10.401Z,2.87
2019-04-21T14:16:38.194Z,2.20
2019-04-21T14:19:05.691Z,1.80
2019-04-21T14:21:33.767Z,2.85
2019-04-21T14:24:01.385Z,2.15
2019-04-21T14:26:29.944Z,3.30
2019-04-21T14:28:58.851Z,3.42
2019-04-21T14:31:26.482Z,2.15
2019-04-21T14:33:54.213Z,5.30
2019-04-21T14:36:22.987Z,3.72
2019-04-21T14:38:50.623Z,3.52
2019-04-21T14:41:18.066Z,3.12
2019-04-21T14:43:45.951Z,3.37
2019-04-21T14:46:37.473Z,2.20
2019-04-21T14:49:19.431Z,1.98
2019-04-21T14:51:50.839Z,2.42
2019-04-21T14:54:46.963Z,3.00
2019-04-21T14:57:15.546Z,3.87
2019-04-21T14:59:44.783Z,2.30
2019-04-21T15:02:14.033Z,9.65
2019-04-21T15:04:41.879Z,15.68
2019-04-21T15:07:09.730Z,25.20
2019-04-21T15:09:39.252Z,7.28
2019-04-21T15:12:07.946Z,3.92
2019-04-21T15:14:36.005Z,2.62
2019-04-21T15:17:04.974Z,3.30
2019-04-21T15:19:32.842Z,2.75
2019-04-21T15:22:00.688Z,3.40
2019-04-21T15:24:30.139Z,2.70
2019-04-21T15:26:59.055Z,2.60
2019-04-21T15:29:26.817Z,4.37
2019-04-21T15:31:54.740Z,2.95
2019-04-21T15:34:25.357Z,2.98
2019-04-21T15:36:52.376Z,2.67
2019-04-21T15:39:19.899Z,4.90
2019-04-21T15:41:48.321Z,4.75
2019-04-21T15:44:16.496Z,4.05
2019-04-21T15:46:46.047Z,5.15
2019-04-21T15:49:13.622Z,2.75
2019-04-21T15:51:42.156Z,2.17
2019-04-21T15:54:10.940Z,6.40
2019-04-21T15:56:42.756Z,4.40
2019-04-21T15:59:33.067Z,3.33
2019-04-21T16:02:18.913Z,3.22
2019-04-21T16:04:46.621Z,5.50
2019-04-21T16:07:14.150Z,4.60
2019-04-21T16:09:41.874Z,2.92
2019-04-21T16:12:09.979Z,4.08
2019-04-21T16:14:38.644Z,2.30
2019-04-21T16:17:07.560Z,2.45
2019-04-21T16:19:36.336Z,3.45
2019-04-21T16:22:03.952Z,3.37
2019-04-21T16:24:31.740Z,2.60
2019-04-21T16:27:01.711Z,4.00
2019-04-21T16:29:29.513Z,2.70
2019-04-21T16:31:57.408Z,3.40
2019-04-21T16:34:36.083Z,4.08
2019-04-21T16:36:55.869Z,2.90
2019-04-21T16:39:23.448Z,3.10
2019-04-21T16:41:51.945Z,2.40
2019-04-21T16:44:20.987Z,4.45
2019-04-21T16:46:49.554Z,3.00
2019-04-21T16:49:18.334Z,3.80
2019-04-21T16:51:47.858Z,2.10
2019-04-21T16:54:28.421Z,2.58
2019-04-21T16:57:03.721Z,2.95
2019-04-21T16:59:36.774Z,3.58
2019-04-21T17:02:04.854Z,2.87
2019-04-21T17:04:33.742Z,1.70
2019-04-21T17:07:02.958Z,3.20
2019-04-21T17:09:32.565Z,5.17
2019-04-21T17:12:03.997Z,3.25
2019-04-21T17:14:45.255Z,3.25
2019-04-21T17:17:36.920Z,1.82
2019-04-21T17:19:33.460Z,3.45
2019-04-21T17:21:59.584Z,5.47
2019-04-21T17:24:28.647Z,1.65
2019-04-21T17:26:57.425Z,1.87
2019-04-21T17:29:25.753Z,2.05
2019-04-21T17:31:53.290Z,2.17
2019-04-21T17:34:24.915Z,3.45
2019-04-21T17:36:50.974Z,2.50
2019-04-21T17:39:18.741Z,3.37
2019-04-21T17:42:01.995Z,2.47
2019-04-21T17:44:17.125Z,2.98
2019-04-21T17:46:51.564Z,4.15
2019-04-21T17:49:14.992Z,2.90
2019-04-21T17:52:08.921Z,3.40
2019-04-21T17:54:43.800Z,3.87
2019-04-21T17:57:30.506Z,4.72
2019-04-21T18:02:30.081Z,3.17
2019-04-21T18:04:58.579Z,3.90
2019-04-21T18:07:27.402Z,2.30
2019-04-21T18:12:31.867Z,3.00
2019-04-21T18:14:53.029Z,1.67
2019-04-21T18:17:11.536Z,1.72
2019-04-21T18:19:41.814Z,2.33
2019-04-21T18:22:36.094Z,2.25
2019-04-21T18:25:06.722Z,2.42
2019-04-21T18:27:32.245Z,2.33
2019-04-21T18:30:04.390Z,2.12
2019-04-21T18:32:37.041Z,2.33
2019-04-21T18:35:17.759Z,3.90
2019-04-21T18:38:07.080Z,2.42
2019-04-21T18:40:28.009Z,6.22
2019-04-21T18:43:35.996Z,2.17
2019-04-21T18:46:17.049Z,3.90
2019-04-21T18:48:29.419Z,4.20
2019-04-21T18:51:15.782Z,1.72
2019-04-21T18:54:26.915Z,4.05
2019-04-21T18:56:33.656Z,3.62
2019-04-21T18:59:02.589Z,2.67
2019-04-21T19:01:33.310Z,3.12
2019-04-21T19:04:00.407Z,2.90
2019-04-21T19:06:47.026Z,2.42
2019-04-21T19:09:17.029Z,4.10
2019-04-21T19:11:42.541Z,3.37
2019-04-21T19:16:53.986Z,3.12
2019-04-21T19:19:39.226Z,2.50
2019-04-21T19:21:49.974Z,3.83
2019-04-21T19:24:27.076Z,3.67
2019-04-21T19:26:52.432Z,5.03
2019-04-21T19:29:24.089Z,2.95
2019-04-21T19:31:49.574Z,3.37
2019-04-21T19:34:06.124Z,4.53
2019-04-21T19:36:29.080Z,3.87
2019-04-21T19:39:06.773Z,2.95
2019-04-21T19:41:41.106Z,3.77
2019-04-21T19:44:15.755Z,4.08
2019-04-21T19:46:38.058Z,4.28
2019-04-21T19:49:22.770Z,3.87
2019-04-21T19:51:36.531Z,2.90
2019-04-21T19:54:03.709Z,2.72
2019-04-21T19:56:24.160Z,6.25
2019-04-21T19:58:52.946Z,3.12
2019-04-21T20:01:21.363Z,5.83
2019-04-21T20:03:55.523Z,4.97
2019-04-21T20:06:33.157Z,3.10
2019-04-21T20:09:09.585Z,2.52
2019-04-21T20:11:36.102Z,3.37
2019-04-21T20:14:32.582Z,2.40
2019-04-21T20:16:37.824Z,5.95
2019-04-21T20:18:52.952Z,3.70
2019-04-21T20:21:14.688Z,5.08
2019-04-21T20:23:43.243Z,2.90
2019-04-21T20:26:14.059Z,4.80
2019-04-21T20:28:54.683Z,3.67
2019-04-21T20:31:30.109Z,4.47
2019-04-21T20:36:35.364Z,4.10
2019-04-21T20:38:50.131Z,2.67
2019-04-21T20:41:24.134Z,2.67
2019-04-21T20:44:04.194Z,5.97
2019-04-21T20:46:24.963Z,3.60
2019-04-21T20:48:52.309Z,4.55
2019-04-21T20:51:27.366Z,4.80
2019-04-21T20:53:54.089Z,4.28
2019-04-21T20:56:17.877Z,3.67
2019-04-21T20:58:57.595Z,5.75
2019-04-21T21:01:39.465Z,3.47
2019-04-21T21:03:55.002Z,3.17
2019-04-21T21:06:21.831Z,3.12
2019-04-21T21:08:57.157Z,3.35
2019-04-21T21:11:24.287Z,4.37
2019-04-21T21:13:52.140Z,3.15
2019-04-21T21:16:29.203Z,4.53
2019-04-21T21:19:04.712Z,3.80
2019-04-21T21:21:23.492Z,4.75
2019-04-21T21:23:52.748Z,2.95
2019-04-21T21:26:25.727Z,4.55
2019-04-21T21:28:45.966Z,3.50
2019-04-21T21:31:17.788Z,4.60
2019-04-21T21:33:57.466Z,3.95
2019-04-21T21:36:20.926Z,3.55
2019-04-21T21:38:53.081Z,3.67
2019-04-21T21:41:10.859Z,4.80
2019-04-21T21:43:31.339Z,4.05
2019-04-21T21:46:04.882Z,4.00
2019-04-21T21:48:40.823Z,3.42
2019-04-21T21:51:08.211Z,6.00
2019-04-21T21:53:34.203Z,3.67
2019-04-21T21:56:02.641Z,4.50
2019-04-21T21:58:36.065Z,4.90
2019-04-21T22:01:02.971Z,3.30
2019-04-21T22:03:34.229Z,3.92
2019-04-21T22:06:06.221Z,3.47
2019-04-21T22:08:30.465Z,7.20
2019-04-21T22:10:59.051Z,2.98
2019-04-21T22:13:37.564Z,3.92
2019-04-21T22:16:03.855Z,5.12
2019-04-21T22:18:43.817Z,5.17
2019-04-21T22:21:10.055Z,7.15
2019-04-21T22:23:39.922Z,3.83
2019-04-21T22:25:57.828Z,3.22
2019-04-21T22:28:25.561Z,3.47
2019-04-21T22:30:54.971Z,7.45
2019-04-21T22:33:23.335Z,3.67
2019-04-21T22:36:00.173Z,3.10
2019-04-21T22:38:38.117Z,4.90
2019-04-21T22:41:00.361Z,3.20
2019-04-21T22:43:28.431Z,3.15
2019-04-21T22:45:49.581Z,4.62
2019-04-21T22:48:20.128Z,5.25
2019-04-21T22:50:46.906Z,3.47
2019-04-21T22:53:16.160Z,3.83
2019-04-21T22:55:45.094Z,5.15
2019-04-21T22:58:15.917Z,3.87
2019-04-21T23:00:46.085Z,3.87
2019-04-21T23:03:17.331Z,3.02
2019-04-21T23:05:44.429Z,3.20
2019-04-21T23:08:12.907Z,3.22
2019-04-21T23:10:47.922Z,3.77
2019-04-21T23:13:15.954Z,4.30
2019-04-21T23:15:47.070Z,4.05
2019-04-21T23:18:27.247Z,3.35
2019-04-21T23:20:55.110Z,2.98
2019-04-21T23:23:30.377Z,4.65
2019-04-21T23:25:53.356Z,3.08
2019-04-21T23:28:22.344Z,4.05
2019-04-21T23:30:56.696Z,4.05
2019-04-21T23:33:08.656Z,2.70
2019-04-21T23:35:40.550Z,2.55
2019-04-21T23:38:08.330Z,3.40
2019-04-21T23:40:35.229Z,4.40
2019-04-21T23:43:09.661Z,3.30
2019-04-21T23:45:38.018Z,3.05
2019-04-21T23:48:18.551Z,4.70
2019-04-21T23:50:43.106Z,3.15
2019-04-21T23:53:01.690Z,5.92
2019-04-21T23:55:29.483Z,4.00
2019-04-21T23:58:07.129Z,4.45
